sensor_id;sensor_type;location;lat;lon;timestamp;P1;durP1;ratioP1;P2;durP2;ratioP2
37517;SDS011;23366;52.498;13.446;2024-02-15T00:00:22;11.60;;;4.75;;
37517;SDS011;23366;52.498;13.446;2024-02-15T00:02:50;7.65;;;4.60;;
37517;SDS011;23366;52.498;13.446;2024-02-15T00:05:16;6.63;;;4.75;;
37517;SDS011;23366;52.498;13.446;2024-02-15T00:07:42;7.43;;;4.55;;
37517;SDS011;23366;52.498;13.446;2024-02-15T00:10:09;6.22;;;4.60;;
37517;SDS011;23366;52.498;13.446;2024-02-15T00:12:35;6.15;;;3.63;;
37517;SDS011;23366;52.498;13.446;2024-02-15T00:15:01;5.50;;;4.00;;
37517;SDS011;23366;52.498;13.446;2024-02-15T00:17:27;13.13;;;6.30;;
37517;SDS011;23366;52.498;13.446;2024-02-15T00:19:57;6.55;;;4.55;;
37517;SDS011;23366;52.498;13.446;2024-02-15T00:22:23;9.30;;;5.10;;
37517;SDS011;23366;52.498;13.446;2024-02-15T00:24:49;7.03;;;4.85;;
37517;SDS011;23366;52.498;13.446;2024-02-15T00:27:15;10.52;;;6.18;;
37517;SDS011;23366;52.498;13.446;2024-02-15T00:29:41;6.75;;;4.47;;
37517;SDS011;23366;52.498;13.446;2024-02-15T00:32:10;8.35;;;4.80;;
37517;SDS011;23366;52.498;13.446;2024-02-15T00:34:36;9.00;;;4.95;;
37517;SDS011;23366;52.498;13.446;2024-02-15T00:37:04;7.53;;;4.55;;
37517;SDS011;23366;52.498;13.446;2024-02-15T00:39:31;7.00;;;4.95;;
37517;SDS011;23366;52.498;13.446;2024-02-15T00:41:57;7.93;;;4.63;;
37517;SDS011;23366;52.498;13.446;2024-02-15T00:44:25;8.25;;;3.85;;
37517;SDS011;23366;52.498;13.446;2024-02-15T00:46:51;9.40;;;4.25;;
37517;SDS011;23366;52.498;13.446;2024-02-15T00:49:17;5.97;;;4.60;;
37517;SDS011;23366;52.498;13.446;2024-02-15T00:51:45;5.28;;;4.07;;
37517;SDS011;23366;52.498;13.446;2024-02-15T00:54:11;8.50;;;5.43;;
37517;SDS011;23366;52.498;13.446;2024-02-15T00:56:37;9.15;;;5.15;;
37517;SDS011;23366;52.498;13.446;2024-02-15T00:59:03;7.55;;;4.65;;
37517;SDS011;23366;52.498;13.446;2024-02-15T01:01:30;7.45;;;5.43;;
37517;SDS011;23366;52.498;13.446;2024-02-15T01:03:57;9.25;;;5.45;;
37517;SDS011;23366;52.498;13.446;2024-02-15T01:06:23;9.50;;;5.93;;
37517;SDS011;23366;52.498;13.446;2024-02-15T01:08:49;8.88;;;4.50;;
37517;SDS011;23366;52.498;13.446;2024-02-15T01:11:15;10.02;;;5.18;;
37517;SDS011;23366;52.498;13.446;2024-02-15T01:13:41;7.15;;;5.00;;
37517;SDS011;23366;52.498;13.446;2024-02-15T01:16:09;7.68;;;5.07;;
37517;SDS011;23366;52.498;13.446;2024-02-15T01:18:35;7.88;;;4.53;;
37517;SDS011;23366;52.498;13.446;2024-02-15T01:21:01;9.48;;;5.65;;
37517;SDS011;23366;52.498;13.446;2024-02-15T01:23:27;8.10;;;5.13;;
37517;SDS011;23366;52.498;13.446;2024-02-15T01:25:54;13.02;;;6.78;;
37517;SDS011;23366;52.498;13.446;2024-02-15T01:28:20;6.78;;;4.70;;
37517;SDS011;23366;52.498;13.446;2024-02-15T01:30:47;7.63;;;5.68;;
37517;SDS011;23366;52.498;13.446;2024-02-15T01:33:13;8.25;;;5.82;;
37517;SDS011;23366;52.498;13.446;2024-02-15T01:35:38;7.72;;;5.45;;
37517;SDS011;23366;52.498;13.446;2024-02-15T01:38:05;8.75;;;5.78;;
37517;SDS011;23366;52.498;13.446;2024-02-15T01:40:31;8.40;;;4.55;;
37517;SDS011;23366;52.498;13.446;2024-02-15T01:42:57;6.90;;;4.68;;
37517;SDS011;23366;52.498;13.446;2024-02-15T01:45:26;10.45;;;5.78;;
37517;SDS011;23366;52.498;13.446;2024-02-15T01:47:53;7.68;;;4.93;;
37517;SDS011;23366;52.498;13.446;2024-02-15T01:50:19;13.30;;;6.10;;
37517;SDS011;23366;52.498;13.446;2024-02-15T01:52:48;8.60;;;5.22;;
37517;SDS011;23366;52.498;13.446;2024-02-15T01:55:15;8.43;;;5.75;;
37517;SDS011;23366;52.498;13.446;2024-02-15T01:57:46;10.93;;;5.13;;
37517;SDS011;23366;52.498;13.446;2024-02-15T02:00:13;9.93;;;5.97;;
37517;SDS011;23366;52.498;13.446;2024-02-15T02:02:41;8.35;;;5.10;;
37517;SDS011;23366;52.498;13.446;2024-02-15T02:05:08;9.60;;;5.18;;
37517;SDS011;23366;52.498;13.446;2024-02-15T02:07:34;7.68;;;4.70;;
37517;SDS011;23366;52.498;13.446;2024-02-15T02:10:00;7.25;;;4.28;;
37517;SDS011;23366;52.498;13.446;2024-02-15T02:12:27;7.93;;;5.72;;
37517;SDS011;23366;52.498;13.446;2024-02-15T02:14:53;7.30;;;5.50;;
37517;SDS011;23366;52.498;13.446;2024-02-15T02:17:19;8.02;;;5.38;;
37517;SDS011;23366;52.498;13.446;2024-02-15T02:19:46;7.93;;;5.70;;
37517;SDS011;23366;52.498;13.446;2024-02-15T02:22:13;7.43;;;4.82;;
37517;SDS011;23366;52.498;13.446;2024-02-15T02:25:21;14.00;;;6.78;;
37517;SDS011;23366;52.498;13.446;2024-02-15T02:27:29;7.40;;;4.57;;
37517;SDS011;23366;52.498;13.446;2024-02-15T02:29:57;9.07;;;5.43;;
37517;SDS011;23366;52.498;13.446;2024-02-15T02:32:24;10.10;;;6.10;;
37517;SDS011;23366;52.498;13.446;2024-02-15T02:34:51;12.60;;;6.75;;
37517;SDS011;23366;52.498;13.446;2024-02-15T02:37:22;7.15;;;4.75;;
37517;SDS011;23366;52.498;13.446;2024-02-15T02:39:48;12.10;;;6.55;;
37517;SDS011;23366;52.498;13.446;2024-02-15T02:42:14;10.82;;;6.30;;
37517;SDS011;23366;52.498;13.446;2024-02-15T02:44:39;10.20;;;6.50;;
37517;SDS011;23366;52.498;13.446;2024-02-15T02:47:05;8.68;;;6.93;;
37517;SDS011;23366;52.498;13.446;2024-02-15T02:49:31;10.15;;;7.03;;
37517;SDS011;23366;52.498;13.446;2024-02-15T02:51:57;9.15;;;5.75;;
37517;SDS011;23366;52.498;13.446;2024-02-15T02:54:23;12.32;;;7.47;;
37517;SDS011;23366;52.498;13.446;2024-02-15T02:56:49;11.65;;;7.50;;
37517;SDS011;23366;52.498;13.446;2024-02-15T02:59:15;16.30;;;7.05;;
37517;SDS011;23366;52.498;13.446;2024-02-15T03:01:41;11.98;;;6.05;;
37517;SDS011;23366;52.498;13.446;2024-02-15T03:04:07;9.43;;;6.68;;
37517;SDS011;23366;52.498;13.446;2024-02-15T03:06:33;10.23;;;6.25;;
37517;SDS011;23366;52.498;13.446;2024-02-15T03:09:00;11.65;;;6.88;;
37517;SDS011;23366;52.498;13.446;2024-02-15T03:11:26;9.10;;;5.68;;
37517;SDS011;23366;52.498;13.446;2024-02-15T03:13:52;12.32;;;6.40;;
37517;SDS011;23366;52.498;13.446;2024-02-15T03:16:21;13.38;;;6.53;;
37517;SDS011;23366;52.498;13.446;2024-02-15T03:18:47;14.13;;;7.28;;
37517;SDS011;23366;52.498;13.446;2024-02-15T03:21:13;13.23;;;7.53;;
37517;SDS011;23366;52.498;13.446;2024-02-15T03:23:40;10.73;;;7.57;;
37517;SDS011;23366;52.498;13.446;2024-02-15T03:26:07;11.13;;;6.07;;
37517;SDS011;23366;52.498;13.446;2024-02-15T03:28:34;14.13;;;7.05;;
37517;SDS011;23366;52.498;13.446;2024-02-15T03:31:03;13.43;;;7.30;;
37517;SDS011;23366;52.498;13.446;2024-02-15T03:33:29;11.50;;;7.32;;
37517;SDS011;23366;52.498;13.446;2024-02-15T03:35:59;9.82;;;6.00;;
37517;SDS011;23366;52.498;13.446;2024-02-15T03:38:25;11.10;;;5.97;;
37517;SDS011;23366;52.498;13.446;2024-02-15T03:40:54;11.18;;;6.32;;
37517;SDS011;23366;52.498;13.446;2024-02-15T03:43:20;10.38;;;6.53;;
37517;SDS011;23366;52.498;13.446;2024-02-15T03:45:48;12.10;;;7.45;;
37517;SDS011;23366;52.498;13.446;2024-02-15T03:48:14;8.30;;;5.57;;
37517;SDS011;23366;52.498;13.446;2024-02-15T03:50:40;8.68;;;5.60;;
37517;SDS011;23366;52.498;13.446;2024-02-15T03:53:08;9.07;;;6.03;;
37517;SDS011;23366;52.498;13.446;2024-02-15T03:55:35;10.35;;;6.10;;
37517;SDS011;23366;52.498;13.446;2024-02-15T03:58:01;12.68;;;6.53;;
37517;SDS011;23366;52.498;13.446;2024-02-15T04:00:27;12.63;;;6.72;;
37517;SDS011;23366;52.498;13.446;2024-02-15T04:02:54;11.50;;;7.20;;
37517;SDS011;23366;52.498;13.446;2024-02-15T04:05:21;12.07;;;6.53;;
37517;SDS011;23366;52.498;13.446;2024-02-15T04:07:48;14.02;;;8.05;;
37517;SDS011;23366;52.498;13.446;2024-02-15T04:10:14;8.82;;;6.13;;
37517;SDS011;23366;52.498;13.446;2024-02-15T04:12:43;12.50;;;6.85;;
37517;SDS011;23366;52.498;13.446;2024-02-15T04:15:09;9.65;;;5.88;;
37517;SDS011;23366;52.498;13.446;2024-02-15T04:17:41;9.88;;;5.82;;
37517;SDS011;23366;52.498;13.446;2024-02-15T04:20:09;12.50;;;6.63;;
37517;SDS011;23366;52.498;13.446;2024-02-15T04:22:36;8.93;;;5.38;;
37517;SDS011;23366;52.498;13.446;2024-02-15T04:25:06;12.48;;;7.70;;
37517;SDS011;23366;52.498;13.446;2024-02-15T04:27:34;9.80;;;6.15;;
37517;SDS011;23366;52.498;13.446;2024-02-15T04:30:01;9.98;;;6.65;;
37517;SDS011;23366;52.498;13.446;2024-02-15T04:32:27;11.18;;;6.35;;
37517;SDS011;23366;52.498;13.446;2024-02-15T04:34:54;13.57;;;6.10;;
37517;SDS011;23366;52.498;13.446;2024-02-15T04:37:20;9.80;;;6.10;;
37517;SDS011;23366;52.498;13.446;2024-02-15T04:39:46;17.30;;;7.82;;
37517;SDS011;23366;52.498;13.446;2024-02-15T04:42:12;10.80;;;7.07;;
37517;SDS011;23366;52.498;13.446;2024-02-15T04:44:38;11.20;;;6.38;;
37517;SDS011;23366;52.498;13.446;2024-02-15T04:47:05;9.55;;;7.57;;
37517;SDS011;23366;52.498;13.446;2024-02-15T04:49:31;13.48;;;6.85;;
37517;SDS011;23366;52.498;13.446;2024-02-15T04:51:57;17.00;;;7.00;;
37517;SDS011;23366;52.498;13.446;2024-02-15T04:54:23;11.90;;;6.68;;
37517;SDS011;23366;52.498;13.446;2024-02-15T04:56:49;13.13;;;8.65;;
37517;SDS011;23366;52.498;13.446;2024-02-15T04:59:19;16.75;;;8.63;;
37517;SDS011;23366;52.498;13.446;2024-02-15T05:01:46;12.88;;;8.13;;
37517;SDS011;23366;52.498;13.446;2024-02-15T05:04:14;10.45;;;6.10;;
37517;SDS011;23366;52.498;13.446;2024-02-15T05:06:40;16.27;;;7.30;;
37517;SDS011;23366;52.498;13.446;2024-02-15T05:09:06;18.48;;;7.45;;
37517;SDS011;23366;52.498;13.446;2024-02-15T05:11:35;11.68;;;6.40;;
37517;SDS011;23366;52.498;13.446;2024-02-15T05:14:04;13.18;;;7.28;;
37517;SDS011;23366;52.498;13.446;2024-02-15T05:16:32;11.25;;;7.88;;
37517;SDS011;23366;52.498;13.446;2024-02-15T05:18:58;14.30;;;6.93;;
37517;SDS011;23366;52.498;13.446;2024-02-15T05:21:24;11.38;;;5.97;;
37517;SDS011;23366;52.498;13.446;2024-02-15T05:23:50;10.13;;;6.15;;
37517;SDS011;23366;52.498;13.446;2024-02-15T05:26:17;12.52;;;6.95;;
37517;SDS011;23366;52.498;13.446;2024-02-15T05:28:48;8.98;;;6.07;;
37517;SDS011;23366;52.498;13.446;2024-02-15T05:31:15;9.60;;;6.03;;
37517;SDS011;23366;52.498;13.446;2024-02-15T05:33:45;16.02;;;6.47;;
37517;SDS011;23366;52.498;13.446;2024-02-15T05:36:16;8.50;;;5.10;;
37517;SDS011;23366;52.498;13.446;2024-02-15T05:38:46;11.38;;;6.30;;
37517;SDS011;23366;52.498;13.446;2024-02-15T05:41:12;10.80;;;6.30;;
37517;SDS011;23366;52.498;13.446;2024-02-15T05:43:39;9.15;;;5.40;;
37517;SDS011;23366;52.498;13.446;2024-02-15T05:46:06;10.93;;;6.45;;
37517;SDS011;23366;52.498;13.446;2024-02-15T05:48:32;12.80;;;5.65;;
37517;SDS011;23366;52.498;13.446;2024-02-15T05:51:04;10.07;;;5.80;;
37517;SDS011;23366;52.498;13.446;2024-02-15T05:53:31;12.05;;;5.95;;
37517;SDS011;23366;52.498;13.446;2024-02-15T05:56:04;10.60;;;6.40;;
37517;SDS011;23366;52.498;13.446;2024-02-15T05:58:31;11.73;;;5.77;;
37517;SDS011;23366;52.498;13.446;2024-02-15T06:00:58;11.15;;;5.50;;
37517;SDS011;23366;52.498;13.446;2024-02-15T06:03:29;7.28;;;5.13;;
37517;SDS011;23366;52.498;13.446;2024-02-15T06:05:56;10.77;;;6.22;;
37517;SDS011;23366;52.498;13.446;2024-02-15T06:08:27;8.75;;;4.63;;
37517;SDS011;23366;52.498;13.446;2024-02-15T06:10:55;10.82;;;5.47;;
37517;SDS011;23366;52.498;13.446;2024-02-15T06:13:21;12.60;;;5.85;;
37517;SDS011;23366;52.498;13.446;2024-02-15T06:15:47;9.45;;;5.45;;
37517;SDS011;23366;52.498;13.446;2024-02-15T06:18:17;7.25;;;4.55;;
37517;SDS011;23366;52.498;13.446;2024-02-15T06:20:46;8.60;;;5.82;;
37517;SDS011;23366;52.498;13.446;2024-02-15T06:23:14;10.23;;;5.97;;
37517;SDS011;23366;52.498;13.446;2024-02-15T06:25:40;10.55;;;6.15;;
37517;SDS011;23366;52.498;13.446;2024-02-15T06:28:06;10.68;;;5.53;;
37517;SDS011;23366;52.498;13.446;2024-02-15T06:30:39;10.40;;;5.88;;
37517;SDS011;23366;52.498;13.446;2024-02-15T06:33:24;12.68;;;6.35;;
37517;SDS011;23366;52.498;13.446;2024-02-15T06:36:08;11.63;;;6.32;;
37517;SDS011;23366;52.498;13.446;2024-02-15T06:38:53;13.02;;;4.65;;
37517;SDS011;23366;52.498;13.446;2024-02-15T06:41:37;11.20;;;6.18;;
37517;SDS011;23366;52.498;13.446;2024-02-15T06:44:04;10.73;;;6.57;;
37517;SDS011;23366;52.498;13.446;2024-02-15T06:46:30;12.43;;;7.32;;
37517;SDS011;23366;52.498;13.446;2024-02-15T06:48:56;11.23;;;6.25;;
37517;SDS011;23366;52.498;13.446;2024-02-15T06:51:23;10.55;;;5.72;;
37517;SDS011;23366;52.498;13.446;2024-02-15T06:53:49;15.45;;;6.30;;
37517;SDS011;23366;52.498;13.446;2024-02-15T06:56:16;10.57;;;6.30;;
37517;SDS011;23366;52.498;13.446;2024-02-15T06:58:45;9.48;;;5.40;;
37517;SDS011;23366;52.498;13.446;2024-02-15T07:01:13;10.80;;;5.05;;
37517;SDS011;23366;52.498;13.446;2024-02-15T07:03:41;8.50;;;5.57;;
37517;SDS011;23366;52.498;13.446;2024-02-15T07:06:10;10.40;;;5.90;;
37517;SDS011;23366;52.498;13.446;2024-02-15T07:08:38;10.02;;;5.93;;
37517;SDS011;23366;52.498;13.446;2024-02-15T07:11:06;9.90;;;5.60;;
37517;SDS011;23366;52.498;13.446;2024-02-15T07:13:34;9.95;;;6.60;;
37517;SDS011;23366;52.498;13.446;2024-02-15T07:16:00;13.05;;;7.13;;
37517;SDS011;23366;52.498;13.446;2024-02-15T07:18:26;7.80;;;5.00;;
37517;SDS011;23366;52.498;13.446;2024-02-15T07:20:52;11.35;;;5.05;;
37517;SDS011;23366;52.498;13.446;2024-02-15T07:23:18;11.93;;;6.70;;
37517;SDS011;23366;52.498;13.446;2024-02-15T07:25:44;12.35;;;5.75;;
37517;SDS011;23366;52.498;13.446;2024-02-15T07:28:13;12.23;;;7.03;;
37517;SDS011;23366;52.498;13.446;2024-02-15T07:30:39;11.77;;;6.18;;
37517;SDS011;23366;52.498;13.446;2024-02-15T07:33:05;9.27;;;5.78;;
37517;SDS011;23366;52.498;13.446;2024-02-15T07:35:32;11.93;;;6.22;;
37517;SDS011;23366;52.498;13.446;2024-02-15T07:38:00;13.70;;;6.80;;
37517;SDS011;23366;52.498;13.446;2024-02-15T07:40:26;10.75;;;6.07;;
37517;SDS011;23366;52.498;13.446;2024-02-15T07:42:54;8.57;;;5.88;;
37517;SDS011;23366;52.498;13.446;2024-02-15T07:45:20;12.27;;;5.93;;
37517;SDS011;23366;52.498;13.446;2024-02-15T07:47:46;10.57;;;6.18;;
37517;SDS011;23366;52.498;13.446;2024-02-15T07:50:17;11.77;;;6.50;;
37517;SDS011;23366;52.498;13.446;2024-02-15T07:52:46;11.38;;;6.70;;
37517;SDS011;23366;52.498;13.446;2024-02-15T07:55:13;9.95;;;6.13;;
37517;SDS011;23366;52.498;13.446;2024-02-15T07:57:39;10.27;;;6.45;;
37517;SDS011;23366;52.498;13.446;2024-02-15T08:00:05;11.32;;;6.78;;
37517;SDS011;23366;52.498;13.446;2024-02-15T08:02:35;10.82;;;6.18;;
37517;SDS011;23366;52.498;13.446;2024-02-15T08:05:01;11.75;;;7.00;;
37517;SDS011;23366;52.498;13.446;2024-02-15T08:07:31;11.32;;;6.60;;
37517;SDS011;23366;52.498;13.446;2024-02-15T08:09:59;10.85;;;6.50;;
37517;SDS011;23366;52.498;13.446;2024-02-15T08:12:25;9.10;;;5.22;;
37517;SDS011;23366;52.498;13.446;2024-02-15T08:14:51;13.40;;;6.25;;
37517;SDS011;23366;52.498;13.446;2024-02-15T08:17:20;10.40;;;6.70;;
37517;SDS011;23366;52.498;13.446;2024-02-15T08:19:46;11.23;;;6.53;;
37517;SDS011;23366;52.498;13.446;2024-02-15T08:22:12;11.13;;;7.47;;
37517;SDS011;23366;52.498;13.446;2024-02-15T08:24:38;10.50;;;6.57;;
37517;SDS011;23366;52.498;13.446;2024-02-15T08:27:04;11.52;;;6.30;;
37517;SDS011;23366;52.498;13.446;2024-02-15T08:29:30;11.30;;;7.72;;
37517;SDS011;23366;52.498;13.446;2024-02-15T08:31:56;12.65;;;6.53;;
37517;SDS011;23366;52.498;13.446;2024-02-15T08:34:23;15.80;;;8.50;;
37517;SDS011;23366;52.498;13.446;2024-02-15T08:36:49;11.00;;;7.35;;
37517;SDS011;23366;52.498;13.446;2024-02-15T08:39:15;12.93;;;7.82;;
37517;SDS011;23366;52.498;13.446;2024-02-15T08:41:42;14.77;;;9.05;;
37517;SDS011;23366;52.498;13.446;2024-02-15T08:44:08;10.32;;;8.18;;
37517;SDS011;23366;52.498;13.446;2024-02-15T08:46:37;14.43;;;7.88;;
37517;SDS011;23366;52.498;13.446;2024-02-15T08:49:03;13.23;;;7.70;;
37517;SDS011;23366;52.498;13.446;2024-02-15T08:51:29;15.20;;;8.90;;
37517;SDS011;23366;52.498;13.446;2024-02-15T08:53:55;14.43;;;8.25;;
37517;SDS011;23366;52.498;13.446;2024-02-15T08:56:21;13.40;;;8.35;;
37517;SDS011;23366;52.498;13.446;2024-02-15T08:58:50;16.95;;;10.02;;
37517;SDS011;23366;52.498;13.446;2024-02-15T09:01:16;14.60;;;8.65;;
37517;SDS011;23366;52.498;13.446;2024-02-15T09:03:42;14.05;;;7.63;;
37517;SDS011;23366;52.498;13.446;2024-02-15T09:06:08;16.35;;;7.05;;
37517;SDS011;23366;52.498;13.446;2024-02-15T09:08:35;11.27;;;6.80;;
37517;SDS011;23366;52.498;13.446;2024-02-15T09:11:01;12.35;;;8.43;;
37517;SDS011;23366;52.498;13.446;2024-02-15T09:13:27;15.52;;;7.35;;
37517;SDS011;23366;52.498;13.446;2024-02-15T09:15:53;8.30;;;5.72;;
37517;SDS011;23366;52.498;13.446;2024-02-15T09:18:20;8.57;;;4.97;;
37517;SDS011;23366;52.498;13.446;2024-02-15T09:20:47;7.85;;;4.93;;
37517;SDS011;23366;52.498;13.446;2024-02-15T09:23:14;9.50;;;6.20;;
37517;SDS011;23366;52.498;13.446;2024-02-15T09:25:40;10.00;;;5.63;;
37517;SDS011;23366;52.498;13.446;2024-02-15T09:28:10;9.07;;;5.03;;
37517;SDS011;23366;52.498;13.446;2024-02-15T09:30:36;11.82;;;5.47;;
37517;SDS011;23366;52.498;13.446;2024-02-15T09:33:03;9.13;;;5.13;;
37517;SDS011;23366;52.498;13.446;2024-02-15T09:35:31;10.43;;;5.05;;
37517;SDS011;23366;52.498;13.446;2024-02-15T09:37:57;8.70;;;4.88;;
37517;SDS011;23366;52.498;13.446;2024-02-15T09:40:23;6.28;;;4.18;;
37517;SDS011;23366;52.498;13.446;2024-02-15T09:42:54;11.52;;;6.10;;
37517;SDS011;23366;52.498;13.446;2024-02-15T09:45:20;11.93;;;5.85;;
37517;SDS011;23366;52.498;13.446;2024-02-15T09:47:49;7.50;;;4.90;;
37517;SDS011;23366;52.498;13.446;2024-02-15T09:50:17;12.00;;;7.03;;
37517;SDS011;23366;52.498;13.446;2024-02-15T09:52:44;6.93;;;5.10;;
37517;SDS011;23366;52.498;13.446;2024-02-15T09:55:11;9.88;;;5.82;;
37517;SDS011;23366;52.498;13.446;2024-02-15T09:57:45;11.07;;;6.15;;
37517;SDS011;23366;52.498;13.446;2024-02-15T10:00:14;8.73;;;5.22;;
37517;SDS011;23366;52.498;13.446;2024-02-15T10:02:40;8.23;;;5.10;;
37517;SDS011;23366;52.498;13.446;2024-02-15T10:05:09;10.60;;;5.43;;
37517;SDS011;23366;52.498;13.446;2024-02-15T10:07:37;13.30;;;6.43;;
37517;SDS011;23366;52.498;13.446;2024-02-15T10:10:13;13.57;;;6.90;;
37517;SDS011;23366;52.498;13.446;2024-02-15T10:12:41;12.20;;;7.68;;
37517;SDS011;23366;52.498;13.446;2024-02-15T10:15:08;15.23;;;7.80;;
37517;SDS011;23366;52.498;13.446;2024-02-15T10:17:35;13.13;;;7.70;;
37517;SDS011;23366;52.498;13.446;2024-02-15T10:20:05;12.45;;;7.88;;
37517;SDS011;23366;52.498;13.446;2024-02-15T10:22:31;16.73;;;8.40;;
37517;SDS011;23366;52.498;13.446;2024-02-15T10:25:10;18.65;;;10.88;;
37517;SDS011;23366;52.498;13.446;2024-02-15T10:27:37;19.08;;;10.38;;
37517;SDS011;23366;52.498;13.446;2024-02-15T10:30:19;18.35;;;11.15;;
37517;SDS011;23366;52.498;13.446;2024-02-15T10:32:45;15.95;;;8.63;;
37517;SDS011;23366;52.498;13.446;2024-02-15T10:35:20;12.88;;;6.60;;
37517;SDS011;23366;52.498;13.446;2024-02-15T10:37:47;14.95;;;7.07;;
37517;SDS011;23366;52.498;13.446;2024-02-15T10:40:14;10.25;;;6.30;;
37517;SDS011;23366;52.498;13.446;2024-02-15T10:42:43;7.28;;;5.10;;
37517;SDS011;23366;52.498;13.446;2024-02-15T10:45:11;7.80;;;4.28;;
37517;SDS011;23366;52.498;13.446;2024-02-15T10:47:39;9.45;;;4.43;;
37517;SDS011;23366;52.498;13.446;2024-02-15T10:50:06;7.72;;;4.28;;
37517;SDS011;23366;52.498;13.446;2024-02-15T10:52:32;6.55;;;4.20;;
37517;SDS011;23366;52.498;13.446;2024-02-15T10:55:05;7.20;;;4.07;;
37517;SDS011;23366;52.498;13.446;2024-02-15T10:57:38;5.88;;;3.88;;
37517;SDS011;23366;52.498;13.446;2024-02-15T11:00:05;6.30;;;3.35;;
37517;SDS011;23366;52.498;13.446;2024-02-15T11:02:42;3.47;;;2.70;;
37517;SDS011;23366;52.498;13.446;2024-02-15T11:05:08;5.53;;;4.15;;
37517;SDS011;23366;52.498;13.446;2024-02-15T11:07:35;6.97;;;3.70;;
37517;SDS011;23366;52.498;13.446;2024-02-15T11:10:01;5.38;;;3.53;;
37517;SDS011;23366;52.498;13.446;2024-02-15T11:12:31;6.63;;;2.55;;
37517;SDS011;23366;52.498;13.446;2024-02-15T11:14:57;7.00;;;3.13;;
37517;SDS011;23366;52.498;13.446;2024-02-15T11:20:08;5.15;;;2.88;;
37517;SDS011;23366;52.498;13.446;2024-02-15T11:22:35;4.22;;;2.80;;
37517;SDS011;23366;52.498;13.446;2024-02-15T11:25:02;6.15;;;3.00;;
37517;SDS011;23366;52.498;13.446;2024-02-15T11:27:33;5.72;;;2.50;;
37517;SDS011;23366;52.498;13.446;2024-02-15T11:30:02;3.65;;;2.42;;
37517;SDS011;23366;52.498;13.446;2024-02-15T11:32:47;3.53;;;2.75;;
37517;SDS011;23366;52.498;13.446;2024-02-15T11:35:18;6.95;;;2.30;;
37517;SDS011;23366;52.498;13.446;2024-02-15T11:40:24;4.07;;;2.10;;
37517;SDS011;23366;52.498;13.446;2024-02-15T11:42:55;3.22;;;2.45;;
37517;SDS011;23366;52.498;13.446;2024-02-15T11:45:27;2.53;;;1.65;;
37517;SDS011;23366;52.498;13.446;2024-02-15T11:47:58;2.75;;;2.20;;
37517;SDS011;23366;52.498;13.446;2024-02-15T11:50:27;2.53;;;1.88;;
37517;SDS011;23366;52.498;13.446;2024-02-15T11:53:01;4.18;;;2.50;;
37517;SDS011;23366;52.498;13.446;2024-02-15T11:55:30;2.45;;;1.48;;
37517;SDS011;23366;52.498;13.446;2024-02-15T11:57:58;3.60;;;2.13;;
37517;SDS011;23366;52.498;13.446;2024-02-15T12:00:30;3.15;;;2.33;;
37517;SDS011;23366;52.498;13.446;2024-02-15T12:03:16;2.10;;;1.77;;
37517;SDS011;23366;52.498;13.446;2024-02-15T12:06:01;2.55;;;1.80;;
37517;SDS011;23366;52.498;13.446;2024-02-15T12:08:46;4.30;;;2.25;;
37517;SDS011;23366;52.498;13.446;2024-02-15T12:11:31;5.25;;;2.25;;
37517;SDS011;23366;52.498;13.446;2024-02-15T12:14:16;3.45;;;2.63;;
37517;SDS011;23366;52.498;13.446;2024-02-15T12:17:05;4.72;;;2.78;;
37517;SDS011;23366;52.498;13.446;2024-02-15T12:19:51;4.35;;;2.85;;
37517;SDS011;23366;52.498;13.446;2024-02-15T12:22:25;4.00;;;2.33;;
37517;SDS011;23366;52.498;13.446;2024-02-15T12:24:53;3.20;;;2.50;;
37517;SDS011;23366;52.498;13.446;2024-02-15T12:27:19;4.15;;;2.30;;
37517;SDS011;23366;52.498;13.446;2024-02-15T12:29:45;5.75;;;3.10;;
37517;SDS011;23366;52.498;13.446;2024-02-15T12:32:19;4.10;;;2.20;;
37517;SDS011;23366;52.498;13.446;2024-02-15T12:34:45;4.63;;;3.22;;
37517;SDS011;23366;52.498;13.446;2024-02-15T12:37:12;3.85;;;2.10;;
37517;SDS011;23366;52.498;13.446;2024-02-15T12:39:38;3.42;;;2.50;;
37517;SDS011;23366;52.498;13.446;2024-02-15T12:42:06;5.78;;;2.63;;
37517;SDS011;23366;52.498;13.446;2024-02-15T12:44:34;5.35;;;2.00;;
37517;SDS011;23366;52.498;13.446;2024-02-15T12:47:00;8.10;;;3.20;;
37517;SDS011;23366;52.498;13.446;2024-02-15T12:49:28;3.55;;;1.90;;
37517;SDS011;23366;52.498;13.446;2024-02-15T12:52:33;3.92;;;2.00;;
37517;SDS011;23366;52.498;13.446;2024-02-15T12:54:41;3.25;;;2.03;;
37517;SDS011;23366;52.498;13.446;2024-02-15T12:57:07;4.20;;;1.98;;
37517;SDS011;23366;52.498;13.446;2024-02-15T12:59:39;4.93;;;2.33;;
37517;SDS011;23366;52.498;13.446;2024-02-15T13:02:07;4.65;;;2.15;;
37517;SDS011;23366;52.498;13.446;2024-02-15T13:04:33;5.00;;;2.33;;
37517;SDS011;23366;52.498;13.446;2024-02-15T13:06:59;4.57;;;2.83;;
37517;SDS011;23366;52.498;13.446;2024-02-15T13:09:25;3.63;;;2.00;;
37517;SDS011;23366;52.498;13.446;2024-02-15T13:11:51;2.67;;;1.75;;
37517;SDS011;23366;52.498;13.446;2024-02-15T13:14:18;2.42;;;1.92;;
37517;SDS011;23366;52.498;13.446;2024-02-15T13:16:45;3.67;;;2.10;;
37517;SDS011;23366;52.498;13.446;2024-02-15T13:19:14;2.90;;;1.95;;
37517;SDS011;23366;52.498;13.446;2024-02-15T13:21:40;4.80;;;1.95;;
37517;SDS011;23366;52.498;13.446;2024-02-15T13:24:05;4.57;;;2.45;;
37517;SDS011;23366;52.498;13.446;2024-02-15T13:26:32;2.88;;;1.63;;
37517;SDS011;23366;52.498;13.446;2024-02-15T13:28:59;4.03;;;2.25;;
37517;SDS011;23366;52.498;13.446;2024-02-15T13:31:25;1.42;;;1.00;;
37517;SDS011;23366;52.498;13.446;2024-02-15T13:33:52;2.28;;;1.67;;
37517;SDS011;23366;52.498;13.446;2024-02-15T13:36:18;4.03;;;2.58;;
37517;SDS011;23366;52.498;13.446;2024-02-15T13:38:45;4.70;;;1.88;;
37517;SDS011;23366;52.498;13.446;2024-02-15T13:41:12;7.50;;;3.08;;
37517;SDS011;23366;52.498;13.446;2024-02-15T13:43:38;1.70;;;1.48;;
37517;SDS011;23366;52.498;13.446;2024-02-15T13:46:06;3.20;;;2.28;;
37517;SDS011;23366;52.498;13.446;2024-02-15T13:48:33;2.35;;;1.52;;
37517;SDS011;23366;52.498;13.446;2024-02-15T13:50:59;6.70;;;1.83;;
37517;SDS011;23366;52.498;13.446;2024-02-15T13:53:24;3.53;;;2.65;;
37517;SDS011;23366;52.498;13.446;2024-02-15T13:55:51;2.60;;;1.95;;
37517;SDS011;23366;52.498;13.446;2024-02-15T13:58:17;2.50;;;1.17;;
37517;SDS011;23366;52.498;13.446;2024-02-15T14:00:43;3.17;;;1.83;;
37517;SDS011;23366;52.498;13.446;2024-02-15T14:03:10;9.77;;;2.08;;
37517;SDS011;23366;52.498;13.446;2024-02-15T14:05:36;2.50;;;1.45;;
37517;SDS011;23366;52.498;13.446;2024-02-15T14:08:04;2.50;;;1.88;;
37517;SDS011;23366;52.498;13.446;2024-02-15T14:10:31;3.28;;;1.63;;
37517;SDS011;23366;52.498;13.446;2024-02-15T14:12:59;4.88;;;1.95;;
37517;SDS011;23366;52.498;13.446;2024-02-15T14:15:30;11.55;;;2.47;;
37517;SDS011;23366;52.498;13.446;2024-02-15T14:17:59;2.22;;;1.48;;
37517;SDS011;23366;52.498;13.446;2024-02-15T14:20:26;1.38;;;1.13;;
37517;SDS011;23366;52.498;13.446;2024-02-15T14:22:53;2.88;;;2.22;;
37517;SDS011;23366;52.498;13.446;2024-02-15T14:25:21;1.45;;;0.95;;
37517;SDS011;23366;52.498;13.446;2024-02-15T14:27:47;2.55;;;1.27;;
37517;SDS011;23366;52.498;13.446;2024-02-15T14:30:13;3.17;;;1.25;;
37517;SDS011;23366;52.498;13.446;2024-02-15T14:33:05;2.38;;;1.52;;
37517;SDS011;23366;52.498;13.446;2024-02-15T14:35:39;2.80;;;1.30;;
37517;SDS011;23366;52.498;13.446;2024-02-15T14:38:09;2.28;;;1.02;;